sensor_id;sensor_type;location;lat;lon;timestamp;P1;durP1;ratioP1;P2;durP2;ratioP2
28174;SDS011;59417;44.788;10.334;2023-04-21T00:00:54;23.48;;;16.90;;
28174;SDS011;59417;44.788;10.334;2023-04-21T00:03:20;22.00;;;17.48;;
28174;SDS011;59417;44.788;10.334;2023-04-21T00:05:48;22.25;;;16.88;;
28174;SDS011;59417;44.788;10.334;2023-04-21T00:08:15;25.95;;;17.45;;
28174;SDS011;59417;44.788;10.334;2023-04-21T00:10:41;23.85;;;17.77;;
28174;SDS011;59417;44.788;10.334;2023-04-21T00:13:07;22.60;;;17.70;;
28174;SDS011;59417;44.788;10.334;2023-04-21T00:15:34;22.83;;;16.63;;
28174;SDS011;59417;44.788;10.334;2023-04-21T00:17:59;20.98;;;15.93;;
28174;SDS011;59417;44.788;10.334;2023-04-21T00:20:25;26.63;;;16.55;;
28174;SDS011;59417;44.788;10.334;2023-04-21T00:23:00;23.70;;;15.73;;
28174;SDS011;59417;44.788;10.334;2023-04-21T00:25:26;20.00;;;16.08;;
28174;SDS011;59417;44.788;10.334;2023-04-21T00:27:52;27.20;;;17.20;;
28174;SDS011;59417;44.788;10.334;2023-04-21T00:30:17;20.88;;;16.85;;
28174;SDS011;59417;44.788;10.334;2023-04-21T00:32:43;22.02;;;16.05;;
28174;SDS011;59417;44.788;10.334;2023-04-21T00:35:09;20.33;;;15.60;;
28174;SDS011;59417;44.788;10.334;2023-04-21T00:37:35;19.52;;;15.27;;
28174;SDS011;59417;44.788;10.334;2023-04-21T00:40:02;18.83;;;15.55;;
28174;SDS011;59417;44.788;10.334;2023-04-21T00:42:28;20.77;;;15.90;;
28174;SDS011;59417;44.788;10.334;2023-04-21T00:44:54;18.45;;;15.88;;
28174;SDS011;59417;44.788;10.334;2023-04-21T00:47:21;24.08;;;16.17;;
28174;SDS011;59417;44.788;10.334;2023-04-21T00:49:48;22.83;;;16.75;;
28174;SDS011;59417;44.788;10.334;2023-04-21T00:52:14;18.52;;;15.32;;
28174;SDS011;59417;44.788;10.334;2023-04-21T00:54:42;19.75;;;16.13;;
28174;SDS011;59417;44.788;10.334;2023-04-21T00:57:08;18.40;;;15.27;;
28174;SDS011;59417;44.788;10.334;2023-04-21T00:59:35;20.23;;;15.35;;
28174;SDS011;59417;44.788;10.334;2023-04-21T01:02:01;21.00;;;16.30;;
28174;SDS011;59417;44.788;10.334;2023-04-21T01:04:27;20.33;;;15.77;;
28174;SDS011;59417;44.788;10.334;2023-04-21T01:06:59;21.20;;;15.65;;
28174;SDS011;59417;44.788;10.334;2023-04-21T01:09:26;21.65;;;15.38;;
28174;SDS011;59417;44.788;10.334;2023-04-21T01:12:05;19.00;;;15.13;;
28174;SDS011;59417;44.788;10.334;2023-04-21T01:14:36;22.25;;;15.63;;
28174;SDS011;59417;44.788;10.334;2023-04-21T01:17:02;20.80;;;16.00;;
28174;SDS011;59417;44.788;10.334;2023-04-21T01:19:35;24.25;;;15.95;;
28174;SDS011;59417;44.788;10.334;2023-04-21T01:22:06;21.00;;;15.73;;
28174;SDS011;59417;44.788;10.334;2023-04-21T01:24:35;19.80;;;15.50;;
28174;SDS011;59417;44.788;10.334;2023-04-21T01:27:11;23.20;;;15.73;;
28174;SDS011;59417;44.788;10.334;2023-04-21T01:29:39;22.63;;;15.73;;
28174;SDS011;59417;44.788;10.334;2023-04-21T01:32:07;18.30;;;14.93;;
28174;SDS011;59417;44.788;10.334;2023-04-21T01:34:39;19.40;;;14.68;;
28174;SDS011;59417;44.788;10.334;2023-04-21T01:37:12;22.27;;;15.52;;
28174;SDS011;59417;44.788;10.334;2023-04-21T01:39:45;18.52;;;15.70;;
28174;SDS011;59417;44.788;10.334;2023-04-21T01:42:12;18.55;;;14.52;;
28174;SDS011;59417;44.788;10.334;2023-04-21T01:44:38;18.17;;;14.43;;
28174;SDS011;59417;44.788;10.334;2023-04-21T01:47:05;17.58;;;14.27;;
28174;SDS011;59417;44.788;10.334;2023-04-21T01:49:30;19.33;;;14.95;;
28174;SDS011;59417;44.788;10.334;2023-04-21T01:51:56;19.13;;;14.13;;
28174;SDS011;59417;44.788;10.334;2023-04-21T01:54:22;21.65;;;15.80;;
28174;SDS011;59417;44.788;10.334;2023-04-21T01:56:48;20.80;;;15.48;;
28174;SDS011;59417;44.788;10.334;2023-04-21T01:59:14;18.92;;;14.70;;
28174;SDS011;59417;44.788;10.334;2023-04-21T02:01:39;21.40;;;15.77;;
28174;SDS011;59417;44.788;10.334;2023-04-21T02:04:05;19.90;;;15.38;;
28174;SDS011;59417;44.788;10.334;2023-04-21T02:06:31;19.67;;;14.10;;
28174;SDS011;59417;44.788;10.334;2023-04-21T02:08:57;22.08;;;15.30;;
28174;SDS011;59417;44.788;10.334;2023-04-21T02:11:26;19.27;;;14.93;;
28174;SDS011;59417;44.788;10.334;2023-04-21T02:13:52;19.58;;;15.02;;
28174;SDS011;59417;44.788;10.334;2023-04-21T02:16:18;17.67;;;13.90;;
28174;SDS011;59417;44.788;10.334;2023-04-21T02:18:46;21.40;;;15.70;;
28174;SDS011;59417;44.788;10.334;2023-04-21T02:21:13;21.73;;;15.27;;
28174;SDS011;59417;44.788;10.334;2023-04-21T02:23:40;19.02;;;14.98;;
28174;SDS011;59417;44.788;10.334;2023-04-21T02:26:06;18.30;;;15.23;;
28174;SDS011;59417;44.788;10.334;2023-04-21T02:28:31;20.30;;;14.93;;
28174;SDS011;59417;44.788;10.334;2023-04-21T02:30:57;19.17;;;14.38;;
28174;SDS011;59417;44.788;10.334;2023-04-21T02:33:23;17.88;;;14.02;;
28174;SDS011;59417;44.788;10.334;2023-04-21T02:35:48;19.50;;;15.38;;
28174;SDS011;59417;44.788;10.334;2023-04-21T02:38:15;20.25;;;15.25;;
28174;SDS011;59417;44.788;10.334;2023-04-21T02:40:41;19.20;;;14.32;;
28174;SDS011;59417;44.788;10.334;2023-04-21T02:43:07;22.60;;;15.88;;
28174;SDS011;59417;44.788;10.334;2023-04-21T02:45:32;19.80;;;15.05;;
28174;SDS011;59417;44.788;10.334;2023-04-21T02:47:58;18.75;;;14.82;;
28174;SDS011;59417;44.788;10.334;2023-04-21T02:50:24;18.25;;;14.43;;
28174;SDS011;59417;44.788;10.334;2023-04-21T02:52:50;17.23;;;15.13;;
28174;SDS011;59417;44.788;10.334;2023-04-21T02:55:15;18.88;;;14.40;;
28174;SDS011;59417;44.788;10.334;2023-04-21T02:57:41;18.33;;;14.52;;
28174;SDS011;59417;44.788;10.334;2023-04-21T03:00:07;18.20;;;15.45;;
28174;SDS011;59417;44.788;10.334;2023-04-21T03:02:36;27.02;;;16.52;;
28174;SDS011;59417;44.788;10.334;2023-04-21T03:05:01;18.45;;;15.27;;
28174;SDS011;59417;44.788;10.334;2023-04-21T03:07:29;22.42;;;15.20;;
28174;SDS011;59417;44.788;10.334;2023-04-21T03:09:54;23.30;;;15.35;;
28174;SDS011;59417;44.788;10.334;2023-04-21T03:12:20;19.70;;;15.23;;
28174;SDS011;59417;44.788;10.334;2023-04-21T03:14:46;22.35;;;15.10;;
28174;SDS011;59417;44.788;10.334;2023-04-21T03:17:12;20.15;;;14.15;;
28174;SDS011;59417;44.788;10.334;2023-04-21T03:19:37;19.45;;;14.50;;
28174;SDS011;59417;44.788;10.334;2023-04-21T03:22:03;21.17;;;15.63;;
28174;SDS011;59417;44.788;10.334;2023-04-21T03:24:29;24.10;;;16.05;;
28174;SDS011;59417;44.788;10.334;2023-04-21T03:26:55;22.08;;;14.95;;
28174;SDS011;59417;44.788;10.334;2023-04-21T03:29:21;21.17;;;15.18;;
28174;SDS011;59417;44.788;10.334;2023-04-21T03:31:47;21.75;;;15.23;;
28174;SDS011;59417;44.788;10.334;2023-04-21T03:34:13;17.92;;;15.10;;
28174;SDS011;59417;44.788;10.334;2023-04-21T03:36:38;18.27;;;15.70;;
28174;SDS011;59417;44.788;10.334;2023-04-21T03:39:04;21.73;;;15.75;;
28174;SDS011;59417;44.788;10.334;2023-04-21T03:41:34;19.35;;;14.70;;
28174;SDS011;59417;44.788;10.334;2023-04-21T03:43:59;21.02;;;16.35;;
28174;SDS011;59417;44.788;10.334;2023-04-21T03:46:25;21.10;;;15.70;;
28174;SDS011;59417;44.788;10.334;2023-04-21T03:48:51;21.00;;;16.85;;
28174;SDS011;59417;44.788;10.334;2023-04-21T03:51:16;23.85;;;16.30;;
28174;SDS011;59417;44.788;10.334;2023-04-21T03:53:42;21.63;;;15.13;;
28174;SDS011;59417;44.788;10.334;2023-04-21T03:56:07;19.75;;;15.35;;
28174;SDS011;59417;44.788;10.334;2023-04-21T03:58:34;19.50;;;16.30;;
28174;SDS011;59417;44.788;10.334;2023-04-21T04:01:00;19.65;;;15.85;;
28174;SDS011;59417;44.788;10.334;2023-04-21T04:03:26;20.08;;;15.63;;
28174;SDS011;59417;44.788;10.334;2023-04-21T04:05:51;23.38;;;16.25;;
28174;SDS011;59417;44.788;10.334;2023-04-21T04:08:17;24.67;;;17.10;;
28174;SDS011;59417;44.788;10.334;2023-04-21T04:10:43;21.00;;;16.67;;
28174;SDS011;59417;44.788;10.334;2023-04-21T04:13:08;21.92;;;16.92;;
28174;SDS011;59417;44.788;10.334;2023-04-21T04:15:34;22.83;;;17.13;;
28174;SDS011;59417;44.788;10.334;2023-04-21T04:18:00;23.52;;;17.70;;
28174;SDS011;59417;44.788;10.334;2023-04-21T04:20:26;23.55;;;17.67;;
28174;SDS011;59417;44.788;10.334;2023-04-21T04:22:51;21.63;;;16.75;;
28174;SDS011;59417;44.788;10.334;2023-04-21T04:25:17;27.23;;;17.00;;
28174;SDS011;59417;44.788;10.334;2023-04-21T04:27:43;22.25;;;16.10;;
28174;SDS011;59417;44.788;10.334;2023-04-21T04:30:09;20.08;;;16.20;;
28174;SDS011;59417;44.788;10.334;2023-04-21T04:32:35;22.13;;;16.90;;
28174;SDS011;59417;44.788;10.334;2023-04-21T04:35:04;20.85;;;17.13;;
28174;SDS011;59417;44.788;10.334;2023-04-21T04:37:30;21.52;;;16.65;;
28174;SDS011;59417;44.788;10.334;2023-04-21T04:39:58;24.27;;;16.92;;
28174;SDS011;59417;44.788;10.334;2023-04-21T04:42:24;20.98;;;16.40;;
28174;SDS011;59417;44.788;10.334;2023-04-21T04:44:53;23.77;;;16.40;;
28174;SDS011;59417;44.788;10.334;2023-04-21T04:47:19;20.80;;;16.00;;
28174;SDS011;59417;44.788;10.334;2023-04-21T04:49:44;22.38;;;17.15;;
28174;SDS011;59417;44.788;10.334;2023-04-21T04:52:11;20.77;;;16.75;;
28174;SDS011;59417;44.788;10.334;2023-04-21T04:54:37;20.75;;;15.25;;
28174;SDS011;59417;44.788;10.334;2023-04-21T04:57:02;24.33;;;17.38;;
28174;SDS011;59417;44.788;10.334;2023-04-21T04:59:28;19.88;;;16.65;;
28174;SDS011;59417;44.788;10.334;2023-04-21T05:01:55;23.10;;;15.68;;
28174;SDS011;59417;44.788;10.334;2023-04-21T05:04:21;20.63;;;16.77;;
28174;SDS011;59417;44.788;10.334;2023-04-21T05:06:47;24.35;;;16.92;;
28174;SDS011;59417;44.788;10.334;2023-04-21T05:09:13;20.83;;;16.77;;
28174;SDS011;59417;44.788;10.334;2023-04-21T05:11:39;20.42;;;15.68;;
28174;SDS011;59417;44.788;10.334;2023-04-21T05:14:05;22.30;;;16.27;;
28174;SDS011;59417;44.788;10.334;2023-04-21T05:16:32;23.83;;;15.82;;
28174;SDS011;59417;44.788;10.334;2023-04-21T05:19:02;21.38;;;15.80;;
28174;SDS011;59417;44.788;10.334;2023-04-21T05:21:27;27.85;;;17.58;;
28174;SDS011;59417;44.788;10.334;2023-04-21T05:23:54;21.33;;;16.80;;
28174;SDS011;59417;44.788;10.334;2023-04-21T05:26:20;21.73;;;16.10;;
28174;SDS011;59417;44.788;10.334;2023-04-21T05:28:47;23.63;;;16.25;;
28174;SDS011;59417;44.788;10.334;2023-04-21T05:31:13;27.63;;;17.13;;
28174;SDS011;59417;44.788;10.334;2023-04-21T05:33:39;23.15;;;16.15;;
28174;SDS011;59417;44.788;10.334;2023-04-21T05:36:08;22.05;;;16.98;;
28174;SDS011;59417;44.788;10.334;2023-04-21T05:41:01;20.42;;;16.15;;
28174;SDS011;59417;44.788;10.334;2023-04-21T05:43:26;22.92;;;16.65;;
28174;SDS011;59417;44.788;10.334;2023-04-21T05:45:52;27.33;;;18.02;;
28174;SDS011;59417;44.788;10.334;2023-04-21T05:48:18;21.23;;;17.25;;
28174;SDS011;59417;44.788;10.334;2023-04-21T05:50:44;21.92;;;15.57;;
28174;SDS011;59417;44.788;10.334;2023-04-21T05:53:09;24.17;;;17.33;;
28174;SDS011;59417;44.788;10.334;2023-04-21T05:55:35;20.90;;;17.17;;
28174;SDS011;59417;44.788;10.334;2023-04-21T05:58:02;23.00;;;16.92;;
28174;SDS011;59417;44.788;10.334;2023-04-21T06:00:28;23.48;;;17.75;;
28174;SDS011;59417;44.788;10.334;2023-04-21T06:02:54;24.23;;;17.80;;
28174;SDS011;59417;44.788;10.334;2023-04-21T06:05:20;21.75;;;17.75;;
28174;SDS011;59417;44.788;10.334;2023-04-21T06:07:46;21.80;;;17.40;;
28174;SDS011;59417;44.788;10.334;2023-04-21T06:10:12;21.27;;;16.73;;
28174;SDS011;59417;44.788;10.334;2023-04-21T06:12:38;21.30;;;15.73;;
28174;SDS011;59417;44.788;10.334;2023-04-21T06:15:04;22.05;;;18.05;;
28174;SDS011;59417;44.788;10.334;2023-04-21T06:17:30;22.23;;;17.77;;
28174;SDS011;59417;44.788;10.334;2023-04-21T06:19:56;24.67;;;19.70;;
28174;SDS011;59417;44.788;10.334;2023-04-21T06:22:22;25.15;;;18.73;;
28174;SDS011;59417;44.788;10.334;2023-04-21T06:24:48;24.55;;;18.95;;
28174;SDS011;59417;44.788;10.334;2023-04-21T06:27:14;26.30;;;19.55;;
28174;SDS011;59417;44.788;10.334;2023-04-21T06:29:40;26.48;;;19.27;;
28174;SDS011;59417;44.788;10.334;2023-04-21T06:32:07;25.73;;;18.73;;
28174;SDS011;59417;44.788;10.334;2023-04-21T06:34:33;24.13;;;19.38;;
28174;SDS011;59417;44.788;10.334;2023-04-21T06:36:59;27.90;;;20.88;;
28174;SDS011;59417;44.788;10.334;2023-04-21T06:39:25;25.77;;;18.95;;
28174;SDS011;59417;44.788;10.334;2023-04-21T06:41:51;27.40;;;20.25;;
28174;SDS011;59417;44.788;10.334;2023-04-21T06:44:17;26.98;;;20.63;;
28174;SDS011;59417;44.788;10.334;2023-04-21T06:46:42;27.55;;;20.50;;
28174;SDS011;59417;44.788;10.334;2023-04-21T06:49:08;28.35;;;22.10;;
28174;SDS011;59417;44.788;10.334;2023-04-21T06:51:34;28.10;;;21.13;;
28174;SDS011;59417;44.788;10.334;2023-04-21T06:54:00;30.45;;;22.65;;
28174;SDS011;59417;44.788;10.334;2023-04-21T06:56:27;29.70;;;21.23;;
28174;SDS011;59417;44.788;10.334;2023-04-21T06:58:53;34.08;;;22.70;;
28174;SDS011;59417;44.788;10.334;2023-04-21T07:01:18;32.28;;;23.38;;
28174;SDS011;59417;44.788;10.334;2023-04-21T07:03:44;27.35;;;21.58;;
28174;SDS011;59417;44.788;10.334;2023-04-21T07:06:10;29.05;;;21.95;;
28174;SDS011;59417;44.788;10.334;2023-04-21T07:08:36;31.73;;;22.92;;
28174;SDS011;59417;44.788;10.334;2023-04-21T07:11:02;29.60;;;22.58;;
28174;SDS011;59417;44.788;10.334;2023-04-21T07:13:28;33.50;;;24.10;;
28174;SDS011;59417;44.788;10.334;2023-04-21T07:15:54;33.25;;;23.58;;
28174;SDS011;59417;44.788;10.334;2023-04-21T07:18:20;31.58;;;23.98;;
28174;SDS011;59417;44.788;10.334;2023-04-21T07:20:45;34.03;;;24.23;;
28174;SDS011;59417;44.788;10.334;2023-04-21T07:23:11;36.03;;;24.25;;
28174;SDS011;59417;44.788;10.334;2023-04-21T07:25:37;29.33;;;24.05;;
28174;SDS011;59417;44.788;10.334;2023-04-21T07:28:03;33.47;;;25.65;;
28174;SDS011;59417;44.788;10.334;2023-04-21T07:30:29;38.45;;;26.30;;
28174;SDS011;59417;44.788;10.334;2023-04-21T07:32:55;37.95;;;26.30;;
28174;SDS011;59417;44.788;10.334;2023-04-21T07:35:21;37.38;;;26.42;;
28174;SDS011;59417;44.788;10.334;2023-04-21T07:37:48;37.97;;;26.90;;
28174;SDS011;59417;44.788;10.334;2023-04-21T07:40:13;37.75;;;25.95;;
28174;SDS011;59417;44.788;10.334;2023-04-21T07:42:39;39.50;;;27.77;;
28174;SDS011;59417;44.788;10.334;2023-04-21T07:45:05;35.90;;;28.17;;
28174;SDS011;59417;44.788;10.334;2023-04-21T07:47:31;36.08;;;26.10;;
28174;SDS011;59417;44.788;10.334;2023-04-21T07:49:57;36.17;;;26.45;;
28174;SDS011;59417;44.788;10.334;2023-04-21T07:52:23;33.65;;;24.55;;
28174;SDS011;59417;44.788;10.334;2023-04-21T07:54:49;33.38;;;25.85;;
28174;SDS011;59417;44.788;10.334;2023-04-21T07:57:14;34.50;;;24.83;;
28174;SDS011;59417;44.788;10.334;2023-04-21T07:59:41;36.03;;;26.25;;
28174;SDS011;59417;44.788;10.334;2023-04-21T08:02:06;36.70;;;26.25;;
28174;SDS011;59417;44.788;10.334;2023-04-21T08:04:33;38.50;;;26.88;;
28174;SDS011;59417;44.788;10.334;2023-04-21T08:06:58;35.50;;;26.33;;
28174;SDS011;59417;44.788;10.334;2023-04-21T08:09:24;32.67;;;25.60;;
28174;SDS011;59417;44.788;10.334;2023-04-21T08:11:50;37.08;;;26.25;;
28174;SDS011;59417;44.788;10.334;2023-04-21T08:14:16;37.38;;;26.70;;
28174;SDS011;59417;44.788;10.334;2023-04-21T08:16:42;33.65;;;24.90;;
28174;SDS011;59417;44.788;10.334;2023-04-21T08:19:08;33.55;;;26.20;;
28174;SDS011;59417;44.788;10.334;2023-04-21T08:21:34;38.55;;;26.55;;
28174;SDS011;59417;44.788;10.334;2023-04-21T08:24:00;37.20;;;25.85;;
28174;SDS011;59417;44.788;10.334;2023-04-21T08:26:26;38.58;;;26.13;;
28174;SDS011;59417;44.788;10.334;2023-04-21T08:28:54;34.72;;;24.20;;
28174;SDS011;59417;44.788;10.334;2023-04-21T08:31:21;32.55;;;23.98;;
28174;SDS011;59417;44.788;10.334;2023-04-21T08:33:47;37.92;;;24.80;;
28174;SDS011;59417;44.788;10.334;2023-04-21T08:36:13;34.60;;;24.90;;
28174;SDS011;59417;44.788;10.334;2023-04-21T08:38:40;31.20;;;24.15;;
28174;SDS011;59417;44.788;10.334;2023-04-21T08:41:07;32.08;;;23.67;;
28174;SDS011;59417;44.788;10.334;2023-04-21T08:43:33;32.00;;;25.60;;
28174;SDS011;59417;44.788;10.334;2023-04-21T08:45:59;32.67;;;25.30;;
28174;SDS011;59417;44.788;10.334;2023-04-21T08:48:30;36.22;;;25.73;;
28174;SDS011;59417;44.788;10.334;2023-04-21T08:51:00;35.83;;;24.75;;
28174;SDS011;59417;44.788;10.334;2023-04-21T08:53:26;34.58;;;24.65;;
28174;SDS011;59417;44.788;10.334;2023-04-21T08:55:52;38.42;;;24.38;;
28174;SDS011;59417;44.788;10.334;2023-04-21T08:58:20;38.30;;;25.20;;
28174;SDS011;59417;44.788;10.334;2023-04-21T09:00:48;34.60;;;24.80;;
28174;SDS011;59417;44.788;10.334;2023-04-21T09:03:21;36.03;;;24.83;;
28174;SDS011;59417;44.788;10.334;2023-04-21T09:05:58;34.63;;;24.85;;
28174;SDS011;59417;44.788;10.334;2023-04-21T09:08:24;34.85;;;23.92;;
28174;SDS011;59417;44.788;10.334;2023-04-21T09:10:52;36.83;;;23.95;;
28174;SDS011;59417;44.788;10.334;2023-04-21T09:13:18;36.45;;;24.05;;
28174;SDS011;59417;44.788;10.334;2023-04-21T09:15:46;34.28;;;24.58;;
28174;SDS011;59417;44.788;10.334;2023-04-21T09:18:14;32.42;;;24.17;;
28174;SDS011;59417;44.788;10.334;2023-04-21T09:20:42;32.42;;;24.17;;
28174;SDS011;59417;44.788;10.334;2023-04-21T09:23:09;33.67;;;24.65;;
28174;SDS011;59417;44.788;10.334;2023-04-21T09:25:39;30.90;;;24.13;;
28174;SDS011;59417;44.788;10.334;2023-04-21T09:28:11;39.22;;;24.83;;
28174;SDS011;59417;44.788;10.334;2023-04-21T09:30:38;35.50;;;23.27;;
28174;SDS011;59417;44.788;10.334;2023-04-21T09:33:05;34.53;;;23.55;;
28174;SDS011;59417;44.788;10.334;2023-04-21T09:35:32;30.67;;;23.17;;
28174;SDS011;59417;44.788;10.334;2023-04-21T09:40:31;33.45;;;23.55;;
28174;SDS011;59417;44.788;10.334;2023-04-21T09:42:56;29.02;;;21.70;;
28174;SDS011;59417;44.788;10.334;2023-04-21T09:45:26;34.30;;;23.73;;
28174;SDS011;59417;44.788;10.334;2023-04-21T09:47:56;31.70;;;22.80;;
28174;SDS011;59417;44.788;10.334;2023-04-21T09:50:23;32.90;;;23.10;;
28174;SDS011;59417;44.788;10.334;2023-04-21T09:52:50;31.17;;;21.27;;
28174;SDS011;59417;44.788;10.334;2023-04-21T09:55:17;31.40;;;22.42;;
28174;SDS011;59417;44.788;10.334;2023-04-21T09:57:46;29.25;;;21.95;;
28174;SDS011;59417;44.788;10.334;2023-04-21T10:00:15;31.45;;;21.95;;
28174;SDS011;59417;44.788;10.334;2023-04-21T10:02:49;29.27;;;20.98;;
28174;SDS011;59417;44.788;10.334;2023-04-21T10:05:15;26.20;;;21.38;;
28174;SDS011;59417;44.788;10.334;2023-04-21T10:07:42;25.92;;;19.40;;
28174;SDS011;59417;44.788;10.334;2023-04-21T10:10:18;24.85;;;19.70;;
28174;SDS011;59417;44.788;10.334;2023-04-21T10:12:49;21.40;;;16.83;;
28174;SDS011;59417;44.788;10.334;2023-04-21T10:15:32;25.45;;;19.50;;
28174;SDS011;59417;44.788;10.334;2023-04-21T10:18:22;26.30;;;19.00;;
28174;SDS011;59417;44.788;10.334;2023-04-21T10:20:49;24.25;;;19.27;;
28174;SDS011;59417;44.788;10.334;2023-04-21T10:23:37;23.35;;;17.58;;
28174;SDS011;59417;44.788;10.334;2023-04-21T10:28:53;26.58;;;17.65;;
28174;SDS011;59417;44.788;10.334;2023-04-21T10:37:17;22.92;;;18.27;;
28174;SDS011;59417;44.788;10.334;2023-04-21T10:39:27;23.48;;;18.05;;
28174;SDS011;59417;44.788;10.334;2023-04-21T10:50:18;24.90;;;18.70;;
28174;SDS011;59417;44.788;10.334;2023-04-21T10:52:51;21.17;;;17.23;;
28174;SDS011;59417;44.788;10.334;2023-04-21T10:55:20;21.50;;;16.33;;
28174;SDS011;59417;44.788;10.334;2023-04-21T10:57:49;19.20;;;14.70;;
28174;SDS011;59417;44.788;10.334;2023-04-21T11:00:19;19.52;;;15.80;;
28174;SDS011;59417;44.788;10.334;2023-04-21T11:05:42;23.80;;;18.70;;
28174;SDS011;59417;44.788;10.334;2023-04-21T11:08:09;24.90;;;18.98;;
28174;SDS011;59417;44.788;10.334;2023-04-21T11:13:10;24.38;;;18.77;;
28174;SDS011;59417;44.788;10.334;2023-04-21T11:15:35;20.73;;;17.65;;
28174;SDS011;59417;44.788;10.334;2023-04-21T11:18:01;22.10;;;16.73;;
28174;SDS011;59417;44.788;10.334;2023-04-21T11:20:27;24.42;;;17.77;;
28174;SDS011;59417;44.788;10.334;2023-04-21T11:22:54;23.45;;;18.48;;
28174;SDS011;59417;44.788;10.334;2023-04-21T11:25:20;23.42;;;17.65;;
28174;SDS011;59417;44.788;10.334;2023-04-21T11:27:55;24.77;;;19.42;;
28174;SDS011;59417;44.788;10.334;2023-04-21T11:30:30;24.90;;;18.20;;
28174;SDS011;59417;44.788;10.334;2023-04-21T11:32:58;22.30;;;16.48;;
28174;SDS011;59417;44.788;10.334;2023-04-21T11:35:24;19.23;;;16.55;;
28174;SDS011;59417;44.788;10.334;2023-04-21T11:38:03;24.73;;;17.92;;
28174;SDS011;59417;44.788;10.334;2023-04-21T11:40:46;22.67;;;16.65;;
28174;SDS011;59417;44.788;10.334;2023-04-21T11:43:35;25.55;;;16.80;;
28174;SDS011;59417;44.788;10.334;2023-04-21T11:46:17;24.95;;;20.23;;
28174;SDS011;59417;44.788;10.334;2023-04-21T11:52:06;22.40;;;17.13;;
28174;SDS011;59417;44.788;10.334;2023-04-21T11:54:31;22.23;;;17.60;;
28174;SDS011;59417;44.788;10.334;2023-04-21T11:56:57;19.52;;;17.00;;
28174;SDS011;59417;44.788;10.334;2023-04-21T11:59:23;18.67;;;14.68;;
28174;SDS011;59417;44.788;10.334;2023-04-21T12:01:51;17.98;;;14.50;;
28174;SDS011;59417;44.788;10.334;2023-04-21T12:04:19;22.90;;;15.60;;
28174;SDS011;59417;44.788;10.334;2023-04-21T12:06:58;21.35;;;17.48;;
28174;SDS011;59417;44.788;10.334;2023-04-21T12:09:26;19.98;;;16.00;;
28174;SDS011;59417;44.788;10.334;2023-04-21T12:11:53;16.65;;;14.00;;
28174;SDS011;59417;44.788;10.334;2023-04-21T12:14:21;17.13;;;13.25;;
28174;SDS011;59417;44.788;10.334;2023-04-21T12:16:48;13.93;;;11.60;;
28174;SDS011;59417;44.788;10.334;2023-04-21T12:22:10;15.63;;;12.43;;
28174;SDS011;59417;44.788;10.334;2023-04-21T12:24:40;13.55;;;11.52;;
28174;SDS011;59417;44.788;10.334;2023-04-21T12:27:07;16.75;;;12.85;;
28174;SDS011;59417;44.788;10.334;2023-04-21T12:29:36;16.13;;;12.63;;
28174;SDS011;59417;44.788;10.334;2023-04-21T12:32:03;19.38;;;12.73;;
28174;SDS011;59417;44.788;10.334;2023-04-21T12:34:29;13.50;;;11.52;;
28174;SDS011;59417;44.788;10.334;2023-04-21T12:36:55;15.18;;;11.93;;
28174;SDS011;59417;44.788;10.334;2023-04-21T12:39:21;15.77;;;13.15;;
28174;SDS011;59417;44.788;10.334;2023-04-21T12:41:47;17.23;;;11.95;;
28174;SDS011;59417;44.788;10.334;2023-04-21T12:44:13;16.40;;;12.23;;
28174;SDS011;59417;44.788;10.334;2023-04-21T12:46:39;13.90;;;11.73;;
28174;SDS011;59417;44.788;10.334;2023-04-21T12:49:05;13.23;;;10.75;;
28174;SDS011;59417;44.788;10.334;2023-04-21T12:51:33;16.83;;;12.07;;
28174;SDS011;59417;44.788;10.334;2023-04-21T12:53:59;17.02;;;12.98;;
28174;SDS011;59417;44.788;10.334;2023-04-21T12:56:25;19.77;;;14.05;;
28174;SDS011;59417;44.788;10.334;2023-04-21T12:58:51;14.75;;;11.95;;
28174;SDS011;59417;44.788;10.334;2023-04-21T13:01:17;15.95;;;11.73;;
28174;SDS011;59417;44.788;10.334;2023-04-21T13:03:43;16.48;;;13.13;;
28174;SDS011;59417;44.788;10.334;2023-04-21T13:06:09;13.50;;;10.23;;
28174;SDS011;59417;44.788;10.334;2023-04-21T13:08:34;12.52;;;10.05;;
28174;SDS011;59417;44.788;10.334;2023-04-21T13:11:01;11.10;;;9.88;;
28174;SDS011;59417;44.788;10.334;2023-04-21T13:13:27;12.20;;;10.25;;
28174;SDS011;59417;44.788;10.334;2023-04-21T13:15:52;13.77;;;11.20;;
28174;SDS011;59417;44.788;10.334;2023-04-21T13:18:18;13.05;;;9.95;;
28174;SDS011;59417;44.788;10.334;2023-04-21T13:20:44;14.95;;;12.32;;
28174;SDS011;59417;44.788;10.334;2023-04-21T13:23:10;15.98;;;12.82;;
28174;SDS011;59417;44.788;10.334;2023-04-21T13:25:40;15.43;;;12.43;;
28174;SDS011;59417;44.788;10.334;2023-04-21T13:28:06;13.85;;;12.05;;
28174;SDS011;59417;44.788;10.334;2023-04-21T13:30:32;14.40;;;11.38;;
28174;SDS011;59417;44.788;10.334;2023-04-21T13:32:59;18.42;;;11.90;;
28174;SDS011;59417;44.788;10.334;2023-04-21T13:35:24;15.55;;;12.27;;
28174;SDS011;59417;44.788;10.334;2023-04-21T13:37:50;15.82;;;11.10;;
28174;SDS011;59417;44.788;10.334;2023-04-21T13:40:16;13.00;;;9.90;;
28174;SDS011;59417;44.788;10.334;2023-04-21T13:42:42;13.77;;;10.73;;
28174;SDS011;59417;44.788;10.334;2023-04-21T13:45:11;15.57;;;10.33;;
28174;SDS011;59417;44.788;10.334;2023-04-21T13:47:36;13.18;;;10.75;;
28174;SDS011;59417;44.788;10.334;2023-04-21T13:50:02;13.18;;;10.77;;
28174;SDS011;59417;44.788;10.334;2023-04-21T13:52:32;17.15;;;12.15;;
28174;SDS011;59417;44.788;10.334;2023-04-21T13:55:00;15.02;;;10.57;;
28174;SDS011;59417;44.788;10.334;2023-04-21T13:57:26;14.00;;;10.82;;
28174;SDS011;59417;44.788;10.334;2023-04-21T13:59:51;14.27;;;11.77;;
28174;SDS011;59417;44.788;10.334;2023-04-21T14:02:18;14.48;;;12.00;;
28174;SDS011;59417;44.788;10.334;2023-04-21T14:04:47;15.90;;;10.50;;
28174;SDS011;59417;44.788;10.334;2023-04-21T14:07:13;13.27;;;10.68;;
28174;SDS011;59417;44.788;10.334;2023-04-21T14:09:42;14.52;;;11.52;;
28174;SDS011;59417;44.788;10.334;2023-04-21T14:12:08;13.35;;;11.80;;
28174;SDS011;59417;44.788;10.334;2023-04-21T14:14:35;14.07;;;10.77;;
28174;SDS011;59417;44.788;10.334;2023-04-21T14:17:01;13.75;;;10.25;;
28174;SDS011;59417;44.788;10.334;2023-04-21T14:19:27;14.40;;;10.85;;
28174;SDS011;59417;44.788;10.334;2023-04-21T14:21:53;12.32;;;9.95;;
28174;SDS011;59417;44.788;10.334;2023-04-21T14:24:19;11.60;;;8.98;;
28174;SDS011;59417;44.788;10.334;2023-04-21T14:26:46;12.60;;;10.00;;
28174;SDS011;59417;44.788;10.334;2023-04-21T14:29:12;12.63;;;9.77;;
28174;SDS011;59417;44.788;10.334;2023-04-21T14:31:37;12.30;;;9.50;;
28174;SDS011;59417;44.788;10.334;2023-04-21T14:34:03;14.02;;;10.43;;
28174;SDS011;59417;44.788;10.334;2023-04-21T14:36:28;13.70;;;11.00;;
28174;SDS011;59417;44.788;10.334;2023-04-21T14:38:55;12.27;;;10.82;;
28174;SDS011;59417;44.788;10.334;2023-04-21T14:41:20;13.70;;;11.75;;